Time;durP1;ratioP1;P1;durP2;ratioP2;P2;SDS_P1;SDS_P2;PMS_P1;PMS_P2;Temp;Humidity;BMP_temperature;BMP_pressure;BME280_temperature;BME280_humidity;BME280_pressure;Samples;Min_cycle;Max_cycle;Signal;HPM_P1;HPM_P2
2023/12/10 00:00:05;;;;;;;1.38;0.60;;;;;;;10.11;100.00;98264.59;336109;29;4624;-78
2023/12/10 00:00:17;;;;;;;3.08;0.60;;;;;;;10.17;100.00;98258.22;333234;28;17714;-77
2023/12/10 00:00:29;;;;;;;3.30;0.65;;;;;;;10.28;100.00;98271.50;332398;29;13251;-76
2023/12/10 00:00:41;;;;;;;2.97;0.70;;;;;;;10.23;100.00;98273.50;334780;29;4599;-76
2023/12/10 00:00:53;;;;;;;4.40;0.75;;;;;;;10.24;100.00;98270.00;334486;29;5136;-77
2023/12/10 00:01:05;;;;;;;5.30;1.17;;;;;;;10.22;100.00;98273.56;332252;29;18015;-77
2023/12/10 00:01:18;;;;;;;4.63;1.15;;;;;;;10.29;100.00;98262.78;336166;29;5427;-77
2023/12/10 00:01:30;;;;;;;3.08;1.30;;;;;;;10.29;100.00;98262.78;333099;29;17750;-77
2023/12/10 00:01:42;;;;;;;1.50;0.68;;;;;;;10.22;100.00;98282.19;334999;29;5458;-79
2023/12/10 00:01:54;;;;;;;2.50;0.52;;;;;;;10.22;100.00;98279.59;335218;29;4586;-77
2023/12/10 00:02:06;;;;;;;4.05;0.68;;;;;;;10.23;100.00;98267.47;327373;29;18208;-76
2023/12/10 00:02:19;;;;;;;6.03;0.80;;;;;;;10.21;100.00;98275.31;334659;29;4594;-77
2023/12/10 00:02:32;;;;;;;5.40;0.88;;;;;;;10.13;100.00;98277.50;332307;28;17752;-76
2023/12/10 00:02:44;;;;;;;2.10;0.90;;;;;;;10.18;100.00;98278.06;335655;28;4704;-77
2023/12/10 00:02:56;;;;;;;2.33;1.05;;;;;;;10.25;100.00;98271.66;333713;28;17852;-77
2023/12/10 00:03:08;;;;;;;2.78;0.77;;;;;;;10.33;100.00;98277.31;334601;29;5154;-78
2023/12/10 00:03:20;;;;;;;2.53;0.52;;;;;;;10.36;100.00;98284.94;333604;29;18222;-78
2023/12/10 00:03:32;;;;;;;3.67;0.50;;;;;;;10.31;100.00;98286.94;331377;29;18088;-77
2023/12/10 00:03:45;;;;;;;2.28;0.50;;;;;;;10.26;100.00;98293.25;331439;29;9992;-76
2023/12/10 00:03:57;;;;;;;1.73;0.35;;;;;;;10.26;100.00;98278.53;331158;29;17914;-76
2023/12/10 00:04:09;;;;;;;2.33;0.52;;;;;;;10.25;100.00;98289.81;333959;29;5299;-77
2023/12/10 00:04:21;;;;;;;3.75;0.60;;;;;;;10.21;100.00;98296.09;330494;29;18899;-78
2023/12/10 00:04:39;;;;;;;4.22;0.60;;;;;;;10.23;100.00;98293.44;330456;29;17789;-77
2023/12/10 00:04:51;;;;;;;2.63;0.60;;;;;;;10.25;100.00;98292.41;330992;29;13373;-76
2023/12/10 00:05:03;;;;;;;2.45;0.80;;;;;;;10.17;100.00;98298.00;332176;29;5031;-77
2023/12/10 00:05:15;;;;;;;2.13;0.80;;;;;;;10.16;100.00;98288.56;329611;29;16511;-80
2023/12/10 00:05:27;;;;;;;3.63;0.63;;;;;;;10.11;100.00;98300.09;332432;29;4670;-79
2023/12/10 00:05:39;;;;;;;5.60;0.77;;;;;;;10.10;100.00;98283.69;331383;29;4564;-77
2023/12/10 00:05:51;;;;;;;4.75;0.90;;;;;;;10.16;100.00;98282.50;328365;29;17957;-78
2023/12/10 00:06:21;;;;;;;1.70;0.50;;;;;;;10.22;100.00;98282.19;325429;29;17292;-79
2023/12/10 00:06:34;;;;;;;4.40;0.68;;;;;;;10.20;100.00;98286.63;333627;29;4884;-76
2023/12/10 00:06:46;;;;;;;3.97;0.75;;;;;;;10.29;100.00;98298.31;330722;29;13038;-76
2023/12/10 00:06:58;;;;;;;4.00;0.85;;;;;;;10.27;100.00;98280.19;333697;29;5013;-76
2023/12/10 00:07:10;;;;;;;3.55;0.68;;;;;;;10.29;100.00;98309.53;335116;29;4804;-78
2023/12/10 00:07:22;;;;;;;2.63;0.60;;;;;;;10.24;100.00;98285.56;333460;29;18113;-77
2023/12/10 00:07:34;;;;;;;3.28;0.68;;;;;;;10.18;100.00;98299.72;336471;29;5233;-79
2023/12/10 00:07:46;;;;;;;3.65;0.60;;;;;;;10.21;100.00;98290.91;334261;28;5495;-77
2023/12/10 00:07:58;;;;;;;2.78;0.50;;;;;;;10.27;100.00;98316.56;337189;28;5193;-77
2023/12/10 00:08:10;;;;;;;2.63;0.50;;;;;;;10.34;100.00;98296.31;337428;28;4726;-76
2023/12/10 00:08:22;;;;;;;3.58;1.10;;;;;;;10.38;100.00;98282.25;334448;28;18291;-77
2023/12/10 00:08:34;;;;;;;4.50;1.20;;;;;;;10.39;100.00;98297.75;337321;28;4722;-77
2023/12/10 00:08:46;;;;;;;3.67;1.23;;;;;;;10.39;99.88;98291.72;334676;28;17967;-77
2023/12/10 00:08:59;;;;;;;3.38;0.80;;;;;;;10.35;100.00;98298.84;337263;28;5025;-76
2023/12/10 00:09:11;;;;;;;4.90;1.00;;;;;;;10.34;100.00;98291.97;335971;29;4703;-77
2023/12/10 00:09:24;;;;;;;3.13;0.88;;;;;;;10.34;100.00;98291.13;333675;29;18003;-77
2023/12/10 00:09:36;;;;;;;2.38;0.80;;;;;;;10.33;100.00;98300.69;336079;29;4601;-77
2023/12/10 00:09:48;;;;;;;2.45;0.70;;;;;;;10.28;100.00;98297.47;333753;29;6260;-77
2023/12/10 00:10:00;;;;;;;4.75;0.70;;;;;;;10.25;100.00;98289.00;336843;28;5709;-76
2023/12/10 00:10:12;;;;;;;5.05;0.70;;;;;;;10.22;100.00;98308.16;334655;28;13810;-76
2023/12/10 00:10:24;;;;;;;4.82;0.85;;;;;;;10.23;100.00;98309.84;337435;28;4531;-76
2023/12/10 00:10:36;;;;;;;3.17;0.80;;;;;;;10.19;100.00;98313.53;332877;28;4614;-76
2023/12/10 00:10:49;;;;;;;4.18;0.60;;;;;;;10.23;100.00;98307.25;334796;28;18128;-76
2023/12/10 00:11:01;;;;;;;4.47;0.65;;;;;;;10.25;100.00;98312.38;337328;28;4912;-77
2023/12/10 00:11:13;;;;;;;2.35;0.60;;;;;;;10.24;100.00;98301.16;335015;28;7925;-76
2023/12/10 00:11:25;;;;;;;3.63;0.68;;;;;;;10.21;100.00;98290.91;337431;28;5667;-77
2023/12/10 00:11:37;;;;;;;3.47;0.75;;;;;;;10.22;100.00;98289.97;335155;28;5163;-76
2023/12/10 00:11:49;;;;;;;4.57;1.05;;;;;;;10.25;100.00;98286.41;337191;28;4812;-77
2023/12/10 00:12:01;;;;;;;3.47;1.00;;;;;;;10.33;100.00;98295.47;336074;28;4756;-78
2023/12/10 00:12:13;;;;;;;2.85;0.73;;;;;;;10.45;100.00;98285.38;328902;28;19116;-77
2023/12/10 00:12:25;;;;;;;5.90;1.00;;;;;;;10.38;100.00;98296.09;335928;29;4999;-76
2023/12/10 00:12:39;;;;;;;6.40;1.13;;;;;;;10.37;99.92;98276.22;333563;29;5292;-75
2023/12/10 00:12:51;;;;;;;6.28;1.02;;;;;;;10.34;100.00;98280.72;336044;29;5404;-77
2023/12/10 00:13:03;;;;;;;3.58;1.17;;;;;;;10.30;100.00;98287.88;331927;29;10505;-76
2023/12/10 00:13:15;;;;;;;3.28;0.90;;;;;;;10.29;100.00;98293.94;334739;29;5606;-77
2023/12/10 00:13:27;;;;;;;2.97;0.57;;;;;;;10.25;100.00;98284.63;333961;29;5494;-77
2023/12/10 00:13:39;;;;;;;2.20;0.50;;;;;;;10.16;100.00;98298.09;332173;29;17679;-76
2023/12/10 00:13:53;;;;;;;2.58;0.52;;;;;;;10.14;100.00;98299.94;332423;29;18046;-77
2023/12/10 00:14:05;;;;;;;2.13;0.60;;;;;;;10.15;100.00;98293.84;335445;28;4725;-76
2023/12/10 00:14:17;;;;;;;4.40;0.82;;;;;;;10.13;100.00;98298.25;335240;29;4723;-78
2023/12/10 00:14:29;;;;;;;6.32;1.00;;;;;;;10.14;100.00;98300.78;332280;29;17939;-78
2023/12/10 00:14:42;;;;;;;4.00;0.80;;;;;;;10.12;100.00;98309.56;333735;29;5457;-80
2023/12/10 00:14:54;;;;;;;2.33;0.98;;;;;;;10.21;100.00;98306.50;331504;29;5513;-77
2023/12/10 00:15:07;;;;;;;1.92;0.95;;;;;;;10.25;100.00;98282.03;334180;29;4621;-78
2023/12/10 00:15:19;;;;;;;2.50;0.95;;;;;;;10.33;100.00;98273.88;332114;28;18094;-80
2023/12/10 00:15:31;;;;;;;3.65;0.80;;;;;;;10.28;99.99;98292.28;335821;28;4588;-77
2023/12/10 00:15:43;;;;;;;4.60;0.90;;;;;;;10.20;100.00;98294.41;334360;28;16219;-77
2023/12/10 00:15:55;;;;;;;5.35;0.93;;;;;;;10.18;100.00;98310.09;336821;28;5259;-77
2023/12/10 00:16:07;;;;;;;4.60;0.60;;;;;;;10.15;100.00;98306.81;337162;28;4672;-79
2023/12/10 00:16:20;;;;;;;2.88;0.50;;;;;;;10.09;100.00;98312.31;334325;28;17914;-78
2023/12/10 00:16:32;;;;;;;1.35;0.55;;;;;;;10.12;100.00;98301.78;332628;28;5576;-78
2023/12/10 00:16:44;;;;;;;2.05;0.80;;;;;;;10.11;100.00;98300.09;335995;28;4711;-76
2023/12/10 00:16:56;;;;;;;2.90;1.00;;;;;;;10.11;100.00;98305.31;336183;28;18203;-78
2023/12/10 00:17:08;;;;;;;2.90;0.90;;;;;;;10.07;100.00;98308.97;336583;28;5266;-78
2023/12/10 00:17:21;;;;;;;3.45;0.88;;;;;;;10.03;100.00;98313.47;329224;29;5317;-77
2023/12/10 00:17:34;;;;;;;3.40;0.70;;;;;;;10.03;100.00;98313.47;334679;29;4759;-77
2023/12/10 00:17:46;;;;;;;4.32;0.93;;;;;;;10.05;100.00;98321.19;327271;29;18336;-78
2023/12/10 00:17:58;;;;;;;5.80;1.00;;;;;;;10.08;100.00;98313.22;335059;29;5541;-79
2023/12/10 00:18:10;;;;;;;4.25;0.85;;;;;;;10.13;100.00;98311.25;333448;29;4575;-77
2023/12/10 00:18:22;;;;;;;3.90;1.35;;;;;;;10.18;100.00;98306.63;335961;29;4529;-77
2023/12/10 00:18:34;;;;;;;4.07;1.50;;;;;;;10.22;100.00;98295.16;332284;29;18434;-76
2023/12/10 00:18:47;;;;;;;3.22;1.40;;;;;;;10.27;99.94;98321.75;334869;29;4666;-77
2023/12/10 00:18:59;;;;;;;3.47;0.73;;;;;;;10.27;99.85;98298.38;332416;29;5465;-76
2023/12/10 00:19:11;;;;;;;3.38;0.63;;;;;;;10.20;100.00;98317.78;330104;29;4890;-76
2023/12/10 00:19:23;;;;;;;3.85;0.77;;;;;;;10.26;99.88;98338.25;334921;29;4716;-77
2023/12/10 00:19:35;;;;;;;4.00;0.90;;;;;;;10.24;99.72;98308.06;332292;29;17751;-76
2023/12/10 00:19:48;;;;;;;4.28;0.90;;;;;;;10.19;99.78;98326.50;333675;29;4590;-76
2023/12/10 00:20:00;;;;;;;4.85;0.80;;;;;;;10.24;99.73;98321.94;329219;29;4916;-78
2023/12/10 00:20:12;;;;;;;4.90;0.90;;;;;;;10.26;99.67;98307.09;335943;29;4869;-77
2023/12/10 00:20:25;;;;;;;3.80;1.10;;;;;;;10.21;99.69;98306.50;335334;29;18084;-77
2023/12/10 00:20:37;;;;;;;3.60;1.20;;;;;;;10.20;99.82;98305.66;333532;28;18222;-76
2023/12/10 00:20:49;;;;;;;2.67;0.95;;;;;;;10.27;100.00;98303.56;333028;28;5465;-77
2023/12/10 00:21:01;;;;;;;3.40;0.73;;;;;;;10.31;99.79;98309.47;334278;28;18436;-76
2023/12/10 00:21:14;;;;;;;5.18;0.90;;;;;;;10.28;99.64;98315.66;335945;29;5629;-76
2023/12/10 00:21:26;;;;;;;5.07;0.90;;;;;;;10.19;99.82;98318.72;333543;29;12998;-76
2023/12/10 00:21:38;;;;;;;4.32;1.02;;;;;;;10.20;99.65;98335.97;336222;29;4660;-77
2023/12/10 00:21:51;;;;;;;4.00;0.90;;;;;;;10.17;99.63;98315.38;333659;29;18553;-77
2023/12/10 00:22:03;;;;;;;3.35;1.00;;;;;;;10.16;99.89;98314.53;330195;29;5366;-76
2023/12/10 00:22:15;;;;;;;2.92;1.10;;;;;;;10.11;99.98;98326.06;332006;29;12436;-76
2023/12/10 00:22:27;;;;;;;3.67;1.40;;;;;;;10.17;100.00;98299.78;334856;29;4570;-76
2023/12/10 00:22:40;;;;;;;5.57;1.48;;;;;;;10.15;99.81;98312.00;334931;29;4709;-76
2023/12/10 00:22:52;;;;;;;7.32;1.30;;;;;;;10.12;99.92;98312.16;332457;29;18433;-77
2023/12/10 00:23:04;;;;;;;7.10;1.25;;;;;;;10.08;100.00;98331.41;335858;29;5397;-76
2023/12/10 00:23:16;;;;;;;4.25;1.17;;;;;;;10.09;100.00;98312.31;332003;29;13022;-78
2023/12/10 00:23:28;;;;;;;4.28;1.05;;;;;;;10.10;100.00;98319.19;335472;29;4671;-77
2023/12/10 00:23:40;;;;;;;4.43;0.82;;;;;;;10.10;99.85;98329.56;331111;29;5429;-78
2023/12/10 00:23:52;;;;;;;5.13;1.08;;;;;;;10.12;100.00;98327.72;333772;28;18180;-77
2023/12/10 00:24:05;;;;;;;5.55;1.00;;;;;;;10.15;99.64;98314.59;335373;29;4594;-76
2023/12/10 00:24:17;;;;;;;6.45;0.75;;;;;;;10.14;99.64;98346.66;332512;29;18055;-77
2023/12/10 00:24:29;;;;;;;5.15;0.70;;;;;;;10.16;99.34;98303.28;335211;29;4765;-76
2023/12/10 00:24:42;;;;;;;4.97;0.70;;;;;;;10.19;99.51;98319.53;332648;28;14830;-76
2023/12/10 00:24:54;;;;;;;7.70;0.68;;;;;;;10.28;98.83;98313.06;335648;29;5041;-78
2023/12/10 00:25:07;;;;;;;6.60;0.80;;;;;;;10.34;98.88;98322.28;333972;28;5656;-77
2023/12/10 00:25:19;;;;;;;5.85;0.93;;;;;;;10.26;98.99;98320.09;337593;28;5348;-76
2023/12/10 00:25:31;;;;;;;2.50;0.70;;;;;;;10.26;99.01;98301.91;334426;28;13635;-76
2023/12/10 00:25:45;;;;;;;1.80;0.60;;;;;;;10.27;98.71;98324.34;337380;28;4551;-77
2023/12/10 00:25:57;;;;;;;1.42;0.52;;;;;;;10.27;98.91;98321.75;334099;28;17921;-77
2023/12/10 00:26:09;;;;;;;2.67;0.55;;;;;;;10.25;98.87;98331.38;337025;28;4636;-77
2023/12/10 00:26:21;;;;;;;3.40;0.80;;;;;;;10.24;99.42;98331.44;333497;29;12399;-76
2023/12/10 00:26:33;;;;;;;3.28;1.10;;;;;;;10.18;99.40;98324.81;336112;29;4691;-77
2023/12/10 00:26:45;;;;;;;4.28;1.10;;;;;;;10.14;99.35;98336.28;336054;29;4741;-76
2023/12/10 00:26:57;;;;;;;3.95;0.98;;;;;;;10.09;99.67;98322.72;333553;29;18285;-76
2023/12/10 00:27:10;;;;;;;2.15;0.85;;;;;;;10.09;100.00;98322.72;336580;28;5372;-77
2023/12/10 00:27:22;;;;;;;2.25;1.05;;;;;;;10.09;100.00;98338.28;334215;28;12977;-77
2023/12/10 00:27:34;;;;;;;4.65;1.20;;;;;;;10.04;100.00;98329.88;336710;28;4751;-77
2023/12/10 00:27:46;;;;;;;5.45;1.40;;;;;;;10.14;100.00;98318.09;336353;28;4584;-77
2023/12/10 00:27:58;;;;;;;3.50;1.08;;;;;;;10.13;100.00;98332.84;329130;29;18231;-76
2023/12/10 00:28:10;;;;;;;4.45;1.10;;;;;;;10.09;100.00;98330.50;336317;28;5098;-76
2023/12/10 00:28:22;;;;;;;6.47;1.17;;;;;;;10.11;100.00;98331.25;334789;28;18205;-77
2023/12/10 00:28:34;;;;;;;5.40;0.88;;;;;;;10.13;99.76;98330.25;337037;28;4577;-76
2023/12/10 00:28:46;;;;;;;4.43;0.77;;;;;;;10.10;99.84;98329.56;337403;28;4573;-77
2023/12/10 00:28:58;;;;;;;4.38;0.73;;;;;;;10.18;100.00;98327.41;334619;28;18138;-76
2023/12/10 00:29:10;;;;;;;6.13;1.00;;;;;;;10.24;99.85;98328.84;337526;28;4746;-77
2023/12/10 00:29:22;;;;;;;6.97;0.90;;;;;;;10.25;99.28;98314.97;334056;28;5423;-76
2023/12/10 00:29:34;;;;;;;5.40;0.93;;;;;;;10.27;99.55;98326.94;337229;28;4523;-77
2023/12/10 00:29:46;;;;;;;4.57;0.90;;;;;;;10.25;99.31;98339.16;337567;28;4704;-76
2023/12/10 00:29:58;;;;;;;4.80;0.80;;;;;;;10.27;99.37;98332.13;334548;28;18409;-77
2023/12/10 00:30:11;;;;;;;3.75;1.00;;;;;;;10.23;99.23;98329.78;334961;28;4531;-76
2023/12/10 00:30:24;;;;;;;7.15;1.10;;;;;;;10.19;99.50;98335.13;332284;28;17986;-77
2023/12/10 00:30:37;;;;;;;6.25;0.98;;;;;;;10.11;99.78;98333.84;335332;28;5335;-77
2023/12/10 00:30:49;;;;;;;3.42;0.93;;;;;;;10.08;100.00;98336.59;327851;28;17714;-76
2023/12/10 00:31:07;;;;;;;2.95;0.80;;;;;;;10.07;100.00;98324.56;333968;29;4601;-76
2023/12/10 00:31:19;;;;;;;4.43;1.13;;;;;;;10.09;100.00;98318.34;332266;29;17662;-77
2023/12/10 00:31:31;;;;;;;5.25;1.30;;;;;;;10.06;100.00;98339.31;334714;29;4794;-76
2023/12/10 00:31:44;;;;;;;3.45;0.85;;;;;;;10.10;100.00;98340.81;333124;29;18169;-76
2023/12/10 00:31:56;;;;;;;6.28;0.85;;;;;;;10.08;100.00;98357.38;336577;28;4754;-77
2023/12/10 00:32:08;;;;;;;6.13;0.88;;;;;;;10.05;100.00;98332.41;337156;28;4754;-76
2023/12/10 00:32:20;;;;;;;4.75;0.73;;;;;;;10.11;100.00;98336.47;331297;28;18341;-76
2023/12/10 00:32:32;;;;;;;2.72;0.70;;;;;;;10.11;100.00;98336.47;331891;28;4562;-79
2023/12/10 00:32:44;;;;;;;3.50;0.80;;;;;;;10.01;100.00;98356.84;333942;28;18308;-77
2023/12/10 00:32:56;;;;;;;5.82;1.05;;;;;;;10.11;100.00;98339.06;337211;28;4671;-76
2023/12/10 00:33:09;;;;;;;6.43;1.02;;;;;;;10.05;100.00;98348.00;336321;28;5352;-77
2023/12/10 00:33:21;;;;;;;3.33;0.90;;;;;;;10.04;100.00;98353.25;333145;28;18098;-77
2023/12/10 00:33:33;;;;;;;3.05;1.10;;;;;;;10.04;100.00;98345.47;334471;28;4609;-76
2023/12/10 00:33:46;;;;;;;2.63;1.05;;;;;;;10.00;100.00;98350.81;327952;28;18148;-76
2023/12/10 00:33:58;;;;;;;5.60;1.15;;;;;;;10.03;100.00;98347.22;335332;28;4547;-76
2023/12/10 00:34:11;;;;;;;6.47;1.15;;;;;;;9.98;100.00;98352.66;332849;28;18290;-77
2023/12/10 00:34:23;;;;;;;4.65;1.13;;;;;;;10.01;100.00;98343.88;336294;28;4595;-78
2023/12/10 00:34:35;;;;;;;3.58;1.27;;;;;;;9.99;100.00;98346.53;333786;28;18057;-76
2023/12/10 00:34:48;;;;;;;3.35;1.33;;;;;;;9.93;100.00;98344.25;335727;28;4589;-78
2023/12/10 00:35:00;;;;;;;3.22;1.27;;;;;;;9.94;100.00;98351.16;332813;28;12722;-77
2023/12/10 00:35:12;;;;;;;3.95;1.08;;;;;;;9.95;100.00;98347.63;330857;28;7697;-76
2023/12/10 00:35:24;;;;;;;2.47;0.70;;;;;;;9.93;100.00;98361.59;333424;28;12529;-76
2023/12/10 00:35:36;;;;;;;3.50;0.70;;;;;;;9.97;100.00;98340.59;336017;28;4543;-77
2023/12/10 00:35:48;;;;;;;4.90;0.90;;;;;;;9.92;100.00;98342.59;336022;28;4706;-77
2023/12/10 00:36:00;;;;;;;5.15;0.88;;;;;;;9.91;100.00;98338.31;334042;28;18040;-78
2023/12/10 00:36:15;;;;;;;3.90;0.75;;;;;;;9.87;100.00;98354.94;337438;28;4881;-77
2023/12/10 00:36:27;;;;;;;3.42;0.73;;;;;;;9.90;100.00;98357.41;334623;28;19160;-77
2023/12/10 00:36:39;;;;;;;7.45;1.13;;;;;;;9.87;100.00;98352.34;337383;28;5025;-77
2023/12/10 00:36:51;;;;;;;6.50;1.48;;;;;;;9.84;100.00;98359.44;334463;28;16481;-77
2023/12/10 00:37:03;;;;;;;5.97;1.38;;;;;;;9.85;100.00;98348.16;335659;28;4552;-77
2023/12/10 00:37:16;;;;;;;2.97;0.77;;;;;;;9.94;100.00;98356.34;332337;28;16989;-76
2023/12/10 00:37:28;;;;;;;4.72;0.95;;;;;;;9.98;100.00;98362.22;334885;28;4566;-77
2023/12/10 00:37:40;;;;;;;6.18;1.10;;;;;;;9.99;100.00;98349.13;332312;28;13225;-75
2023/12/10 00:37:52;;;;;;;4.60;0.90;;;;;;;9.97;100.00;98345.78;334777;29;4897;-76
2023/12/10 00:38:04;;;;;;;6.22;0.95;;;;;;;9.96;100.00;98354.50;330117;29;5515;-76
2023/12/10 00:38:16;;;;;;;6.38;1.30;;;;;;;10.01;100.00;98377.63;331952;29;12751;-77
2023/12/10 00:38:31;;;;;;;4.78;1.15;;;;;;;10.06;100.00;98339.31;332866;28;17540;-76
2023/12/10 00:38:45;;;;;;;6.53;1.10;;;;;;;10.15;100.00;98356.97;334817;29;4680;-76
2023/12/10 00:38:59;;;;;;;7.95;1.20;;;;;;;10.13;100.00;98345.00;332311;29;18228;-76
2023/12/10 00:39:12;;;;;;;4.50;1.00;;;;;;;10.14;100.00;98363.09;331624;29;18075;-77
2023/12/10 00:39:24;;;;;;;2.72;0.90;;;;;;;10.17;100.00;98359.50;334976;29;4662;-76
2023/12/10 00:39:37;;;;;;;4.40;1.20;;;;;;;10.06;100.00;98360.06;333405;29;16529;-76
2023/12/10 00:39:49;;;;;;;4.80;1.33;;;;;;;10.01;100.00;98356.84;333902;29;18225;-76
2023/12/10 00:40:03;;;;;;;4.40;1.15;;;;;;;9.99;100.00;98363.88;333449;29;18103;-76
2023/12/10 00:40:16;;;;;;;2.83;0.80;;;;;;;9.94;100.00;98371.91;336177;29;5105;-76
2023/12/10 00:40:28;;;;;;;3.03;1.00;;;;;;;9.94;100.00;98361.53;333152;29;17955;-76
2023/12/10 00:40:40;;;;;;;2.40;1.05;;;;;;;9.93;100.00;98371.97;335976;29;5335;-77
2023/12/10 00:40:52;;;;;;;4.50;1.30;;;;;;;9.95;100.00;98373.56;333345;28;18104;-77
2023/12/10 00:41:05;;;;;;;5.18;1.17;;;;;;;9.98;100.00;98373.44;330866;29;5605;-76
2023/12/10 00:41:17;;;;;;;4.65;1.02;;;;;;;9.89;100.00;98379.06;333450;28;18034;-77
2023/12/10 00:41:29;;;;;;;2.67;0.80;;;;;;;9.86;100.00;98368.88;336665;28;4739;-77
2023/12/10 00:41:41;;;;;;;2.17;0.75;;;;;;;9.86;100.00;98374.06;333345;28;12258;-77
2023/12/10 00:41:53;;;;;;;2.15;0.90;;;;;;;9.82;100.00;98385.50;335337;28;4939;-78
2023/12/10 00:42:05;;;;;;;2.22;1.00;;;;;;;9.85;100.00;98387.09;335823;28;4677;-78
2023/12/10 00:42:18;;;;;;;2.72;1.00;;;;;;;9.85;100.00;98387.09;333369;28;18141;-77
2023/12/10 00:42:30;;;;;;;3.72;1.10;;;;;;;9.87;100.00;98391.28;336090;28;5617;-79
2023/12/10 00:42:43;;;;;;;5.20;1.40;;;;;;;9.89;100.00;98381.66;333215;28;18260;-76
2023/12/10 00:42:58;;;;;;;6.35;1.35;;;;;;;9.87;100.00;98385.25;335989;28;5464;-77
2023/12/10 00:43:12;;;;;;;4.70;1.02;;;;;;;9.88;100.00;98382.59;333427;28;17846;-76
2023/12/10 00:43:24;;;;;;;3.42;0.75;;;;;;;9.89;100.00;98379.06;332742;29;17740;-77
2023/12/10 00:43:40;;;;;;;3.78;0.70;;;;;;;9.93;100.00;98390.16;336196;29;5118;-76
2023/12/10 00:43:52;;;;;;;3.97;0.90;;;;;;;9.93;100.00;98388.38;334175;28;17940;-76
2023/12/10 00:44:04;;;;;;;4.97;1.20;;;;;;;9.92;100.00;98388.47;334038;28;16855;-77
2023/12/10 00:44:16;;;;;;;5.35;1.35;;;;;;;9.90;100.00;98385.97;335440;29;4740;-76
2023/12/10 00:44:28;;;;;;;7.40;1.50;;;;;;;9.86;100.00;98394.81;332267;29;19769;-76
2023/12/10 00:44:40;;;;;;;7.35;1.98;;;;;;;9.85;100.00;98393.13;334737;29;4700;-76
2023/12/10 00:44:52;;;;;;;4.20;1.48;;;;;;;9.74;100.00;98395.44;331881;29;18067;-76
2023/12/10 00:45:05;;;;;;;4.57;1.50;;;;;;;9.78;100.00;98399.56;334548;29;4566;-76
2023/12/10 00:45:18;;;;;;;4.28;0.90;;;;;;;9.80;100.00;98389.94;331439;29;18610;-76
2023/12/10 00:45:30;;;;;;;4.47;0.80;;;;;;;9.78;100.00;98396.97;334693;29;5334;-76
2023/12/10 00:45:43;;;;;;;5.93;1.00;;;;;;;9.80;100.00;98405.50;332357;29;18139;-76
2023/12/10 00:45:56;;;;;;;4.60;1.17;;;;;;;9.83;100.00;98404.50;335206;29;4648;-77
2023/12/10 00:46:09;;;;;;;4.78;1.08;;;;;;;9.85;100.00;98395.72;332888;29;13568;-76
2023/12/10 00:46:22;;;;;;;4.65;1.00;;;;;;;9.84;100.00;98401.84;335057;28;12837;-76
2023/12/10 00:46:34;;;;;;;4.97;1.20;;;;;;;9.81;100.00;98401.97;333261;28;17678;-76
2023/12/10 00:46:46;;;;;;;4.55;1.10;;;;;;;9.78;100.00;98396.97;336247;28;4608;-77
2023/12/10 00:46:58;;;;;;;7.07;1.10;;;;;;;9.86;100.00;98405.19;330879;28;6469;-76
2023/12/10 00:47:10;;;;;;;5.20;0.95;;;;;;;9.84;100.00;98394.06;334735;28;18480;-77
2023/12/10 00:47:22;;;;;;;3.60;0.63;;;;;;;9.91;100.00;98403.19;336492;28;5311;-76
2023/12/10 00:47:34;;;;;;;2.10;0.63;;;;;;;9.89;100.00;98397.25;334382;28;4710;-76
2023/12/10 00:47:46;;;;;;;4.63;0.73;;;;;;;9.91;100.00;98402.38;336615;28;4704;-77
2023/12/10 00:47:58;;;;;;;5.55;0.93;;;;;;;9.86;100.00;98401.75;333810;28;16390;-76
2023/12/10 00:48:12;;;;;;;7.03;0.88;;;;;;;9.90;100.00;98404.13;331877;28;5579;-77
2023/12/10 00:48:24;;;;;;;5.15;0.88;;;;;;;9.84;100.00;98404.44;333535;29;18991;-76
2023/12/10 00:48:37;;;;;;;3.95;0.70;;;;;;;9.85;100.00;98403.50;335440;29;4720;-76
2023/12/10 00:48:49;;;;;;;3.15;0.90;;;;;;;9.86;100.00;98410.38;333453;29;18124;-77
2023/12/10 00:49:02;;;;;;;3.97;1.55;;;;;;;9.83;100.00;98405.34;336744;28;4721;-76
2023/12/10 00:49:14;;;;;;;4.00;1.65;;;;;;;9.78;100.00;98412.53;334562;28;5078;-76
2023/12/10 00:49:26;;;;;;;5.80;1.33;;;;;;;9.81;100.00;98407.16;337394;28;4591;-76
2023/12/10 00:49:38;;;;;;;7.15;1.10;;;;;;;9.89;100.00;98411.97;335059;28;4779;-76
2023/12/10 00:49:50;;;;;;;8.57;1.00;;;;;;;9.89;100.00;98405.03;337522;28;5191;-76
2023/12/10 00:50:04;;;;;;;5.45;0.95;;;;;;;9.94;100.00;98413.44;337189;28;12096;-78
2023/12/10 00:50:16;;;;;;;3.67;0.90;;;;;;;10.00;100.00;98410.53;333726;29;19105;-76
2023/12/10 00:50:28;;;;;;;2.72;0.95;;;;;;;10.06;100.00;98417.19;334211;28;4867;-76
2023/12/10 00:50:40;;;;;;;3.97;0.90;;;;;;;10.04;100.00;98419.03;337438;28;4729;-76
2023/12/10 00:50:52;;;;;;;4.55;0.82;;;;;;;10.00;100.00;98407.94;337401;28;5603;-77
2023/12/10 00:51:05;;;;;;;4.85;0.80;;;;;;;9.98;100.00;98409.78;336463;28;17864;-76
2023/12/10 00:51:18;;;;;;;5.00;0.95;;;;;;;10.02;100.00;98413.06;332693;29;18098;-78
2023/12/10 00:51:31;;;;;;;4.35;1.00;;;;;;;10.04;100.00;98410.38;332090;29;17950;-76
2023/12/10 00:51:43;;;;;;;5.32;1.02;;;;;;;10.08;100.00;98404.97;334800;29;4536;-77
2023/12/10 00:51:55;;;;;;;6.45;1.25;;;;;;;10.05;100.00;98409.47;332663;29;4679;-77
2023/12/10 00:52:07;;;;;;;4.90;1.17;;;;;;;9.95;100.00;98409.91;335952;29;4797;-77
2023/12/10 00:52:19;;;;;;;3.22;0.93;;;;;;;9.94;100.00;98407.38;332531;29;4689;-76
2023/12/10 00:52:31;;;;;;;3.05;1.00;;;;;;;9.86;100.00;98410.38;330441;29;4776;-78
2023/12/10 00:52:43;;;;;;;4.47;1.48;;;;;;;9.93;100.00;98403.97;333544;29;4593;-76
2023/12/10 00:52:55;;;;;;;4.93;1.67;;;;;;;9.94;100.00;98422.97;331016;29;18125;-76
2023/12/10 00:53:07;;;;;;;3.42;1.35;;;;;;;9.94;100.00;98408.25;334713;29;4934;-76
2023/12/10 00:53:19;;;;;;;4.05;0.95;;;;;;;9.96;100.00;98411.59;331899;28;13506;-77
2023/12/10 00:53:31;;;;;;;6.75;1.25;;;;;;;9.90;100.00;98418.84;335972;28;4679;-78
2023/12/10 00:53:43;;;;;;;7.50;1.42;;;;;;;9.87;100.00;98421.59;336119;28;4756;-77
2023/12/10 00:53:55;;;;;;;6.30;1.35;;;;;;;9.92;100.00;98419.59;333285;28;15966;-77
2023/12/10 00:54:07;;;;;;;4.20;0.80;;;;;;;9.89;100.00;98410.22;331480;29;4783;-78
2023/12/10 00:54:19;;;;;;;8.65;1.23;;;;;;;9.89;100.00;98424.97;334761;29;4590;-77
2023/12/10 00:54:33;;;;;;;8.75;1.25;;;;;;;9.89;100.00;98419.78;332176;29;18036;-77
2023/12/10 00:54:45;;;;;;;9.38;1.23;;;;;;;9.98;100.00;98409.78;331967;29;13424;-76
2023/12/10 00:54:57;;;;;;;6.82;0.80;;;;;;;10.04;100.00;98415.56;336514;28;4798;-77
2023/12/10 00:55:10;;;;;;;6.40;0.82;;;;;;;10.05;100.00;98414.66;337532;28;4632;-79
2023/12/10 00:55:22;;;;;;;4.97;0.73;;;;;;;10.00;100.00;98417.50;329978;28;17667;-77
2023/12/10 00:55:34;;;;;;;5.30;1.00;;;;;;;10.00;99.97;98407.09;337213;28;5153;-76
2023/12/10 00:55:46;;;;;;;6.53;1.00;;;;;;;10.02;100.00;98422.59;331260;28;18305;-79
2023/12/10 00:55:58;;;;;;;9.73;1.20;;;;;;;10.05;99.39;98438.84;336002;28;5349;-76
2023/12/10 00:56:10;;;;;;;10.45;1.08;;;;;;;10.07;99.32;98431.00;333699;28;19356;-76
2023/12/10 00:56:23;;;;;;;9.38;1.00;;;;;;;10.08;99.10;98411.88;336141;28;4547;-77
2023/12/10 00:56:35;;;;;;;5.60;1.27;;;;;;;10.04;99.48;98418.16;334166;28;12646;-76
2023/12/10 00:56:47;;;;;;;4.30;1.27;;;;;;;9.93;99.71;98411.75;335627;28;17853;-78
2023/12/10 00:57:00;;;;;;;6.78;1.45;;;;;;;9.88;99.79;98416.34;336228;28;5957;-78
2023/12/10 00:57:12;;;;;;;6.63;1.05;;;;;;;9.87;100.00;98432.81;333644;28;18392;-78
2023/12/10 00:57:25;;;;;;;3.97;0.73;;;;;;;9.86;99.94;98436.34;336536;28;4690;-76
2023/12/10 00:57:37;;;;;;;2.42;0.98;;;;;;;9.88;100.00;98418.94;333570;28;13309;-77
2023/12/10 00:57:49;;;;;;;4.63;1.13;;;;;;;9.88;99.94;98424.13;336436;28;5262;-77
2023/12/10 00:58:02;;;;;;;4.38;1.05;;;;;;;9.90;100.00;98448.25;333289;28;18485;-77
2023/12/10 00:58:14;;;;;;;3.42;0.77;;;;;;;9.95;99.24;98415.09;334839;29;4630;-76
2023/12/10 00:58:26;;;;;;;4.40;1.08;;;;;;;10.03;99.38;98406.09;335190;29;5484;-76
2023/12/10 00:58:39;;;;;;;5.13;1.13;;;;;;;10.10;99.01;98412.66;326977;29;18254;-77
2023/12/10 00:58:51;;;;;;;3.20;0.90;;;;;;;10.18;98.50;98415.69;335090;29;5094;-76
2023/12/10 00:59:03;;;;;;;4.25;1.02;;;;;;;10.12;98.78;98421.22;333717;28;5567;-76
2023/12/10 00:59:15;;;;;;;3.70;0.95;;;;;;;9.97;99.12;98423.66;335687;28;4536;-76